createdAt,value
2023-03-21T04:14:47.495Z,8.73
2023-03-21T04:17:36.984Z,8.00
2023-03-21T04:46:18.033Z,8.93
2023-03-21T04:58:01.226Z,10.05
2023-03-21T04:59:29.966Z,9.00
2023-03-21T05:17:38.724Z,10.32
2023-03-21T05:24:05.375Z,10.20
2023-03-21T05:25:38.052Z,10.45
2023-03-21T05:27:05.788Z,10.32
2023-03-21T05:28:44.879Z,11.50
2023-03-21T05:32:16.358Z,11.85
2023-03-21T05:37:48.236Z,12.38
2023-03-21T05:39:00.346Z,12.95
2023-03-21T05:40:07.932Z,12.88
2023-03-21T05:41:20.248Z,14.05
2023-03-21T05:42:29.201Z,14.07
2023-03-21T05:43:40.353Z,14.50
2023-03-21T05:44:46.731Z,16.50
2023-03-21T05:45:49.938Z,15.82
2023-03-21T05:46:55.715Z,15.23
2023-03-21T05:48:04.234Z,15.23
2023-03-21T05:49:15.534Z,13.52
2023-03-21T05:50:21.729Z,14.43
2023-03-21T05:51:42.271Z,14.13
2023-03-21T05:52:48.606Z,14.93
2023-03-21T05:54:22.557Z,13.90
2023-03-21T06:06:30.741Z,12.55
2023-03-21T06:08:26.304Z,12.63
2023-03-21T06:14:29.509Z,12.40
2023-03-21T06:16:18.480Z,11.98
2023-03-21T06:32:55.093Z,12.57
2023-03-21T06:35:51.268Z,13.63
2023-03-21T06:37:30.273Z,12.32
2023-03-21T06:44:32.491Z,12.75
2023-03-21T06:45:48.766Z,12.30
2023-03-21T06:47:00.284Z,12.77
2023-03-21T06:48:40.926Z,14.02
2023-03-21T06:50:54.821Z,13.10
2023-03-21T06:53:53.860Z,12.18
2023-03-21T06:59:38.706Z,12.35
2023-03-21T07:40:29.613Z,12.05
2023-03-21T07:42:01.417Z,12.38
2023-03-21T07:43:50.669Z,12.82
2023-03-21T07:45:34.059Z,12.25
2023-03-21T07:46:54.701Z,13.18
2023-03-21T07:52:51.336Z,11.95
2023-03-21T07:58:42.973Z,13.13
2023-03-21T08:01:49.026Z,12.98
2023-03-21T08:04:45.000Z,12.90
2023-03-21T08:13:19.306Z,11.60
2023-03-21T08:15:04.021Z,12.70
2023-03-21T08:16:42.002Z,10.57
2023-03-21T08:17:56.681Z,11.48
2023-03-21T08:19:09.894Z,11.35
2023-03-21T08:21:11.793Z,9.90
2023-03-21T08:25:34.862Z,11.13
2023-03-21T08:28:15.729Z,9.82
2023-03-21T08:31:36.567Z,8.27
2023-03-21T08:34:13.781Z,8.40
2023-03-21T08:35:23.823Z,9.73
2023-03-21T08:37:00.144Z,9.15
2023-03-21T08:38:26.028Z,9.60
2023-03-21T08:39:46.040Z,8.85
2023-03-21T08:41:12.510Z,9.30
2023-03-21T08:42:53.850Z,8.90
2023-03-21T08:44:22.837Z,9.10
2023-03-21T08:45:40.960Z,9.77
2023-03-21T08:46:45.206Z,9.90
2023-03-21T08:47:57.403Z,10.05
2023-03-21T08:49:03.126Z,9.48
2023-03-21T08:50:20.246Z,10.25
2023-03-21T08:51:36.711Z,10.05
2023-03-21T08:53:00.393Z,10.27
2023-03-21T08:54:07.842Z,9.88
2023-03-21T08:55:46.707Z,10.35
2023-03-21T08:57:01.356Z,10.25
2023-03-21T08:58:11.129Z,10.38
2023-03-21T08:59:15.615Z,10.68
2023-03-21T09:00:22.202Z,11.00
2023-03-21T09:01:25.019Z,10.43
2023-03-21T09:02:27.904Z,11.05
2023-03-21T09:03:32.377Z,10.80
2023-03-21T09:04:34.966Z,9.45
2023-03-21T09:05:37.379Z,10.02
2023-03-21T09:12:49.171Z,10.05
2023-03-21T09:14:44.679Z,10.13
2023-03-21T09:17:01.913Z,11.60
2023-03-21T09:25:18.863Z,9.55
2023-03-21T09:36:50.073Z,9.65
2023-03-21T10:33:59.213Z,8.32
2023-03-21T10:35:46.638Z,7.70
2023-03-21T10:38:17.482Z,7.97
2023-03-21T10:39:58.496Z,8.63
2023-03-21T10:54:26.186Z,8.55
2023-03-21T10:58:49.407Z,9.30
2023-03-21T11:00:47.851Z,9.48
2023-03-21T11:21:56.685Z,8.50
2023-03-21T11:26:06.147Z,7.78
2023-03-21T11:28:58.861Z,8.35
2023-03-21T11:30:32.506Z,8.68
2023-03-21T11:37:23.088Z,8.88
2023-03-21T11:42:53.460Z,9.13
2023-03-21T11:52:45.305Z,9.50
2023-03-21T11:56:42.036Z,9.90
2023-03-21T12:03:10.693Z,7.15
2023-03-21T12:20:28.529Z,7.35
2023-03-21T12:21:55.059Z,10.60
2023-03-21T12:23:33.483Z,8.13
2023-03-21T12:24:57.603Z,8.27
2023-03-21T12:26:27.419Z,7.95
2023-03-21T12:27:44.914Z,7.30
2023-03-21T12:28:59.903Z,7.82
2023-03-21T12:30:26.151Z,7.47
2023-03-21T12:31:49.398Z,6.53
2023-03-21T12:33:05.375Z,6.85
2023-03-21T12:34:34.943Z,7.95
2023-03-21T12:35:50.813Z,6.65
2023-03-21T12:37:09.529Z,7.15
2023-03-21T12:38:33.108Z,6.63
2023-03-21T12:39:43.272Z,7.53
2023-03-21T12:41:02.286Z,7.53
2023-03-21T12:42:14.954Z,6.05
2023-03-21T12:43:42.300Z,6.25
2023-03-21T12:45:15.803Z,5.65
2023-03-21T12:46:25.052Z,5.28
2023-03-21T12:47:34.896Z,6.40
2023-03-21T12:48:44.326Z,6.05
2023-03-21T12:50:03.798Z,6.53
2023-03-21T12:51:11.997Z,5.78
2023-03-21T12:52:18.995Z,5.85
2023-03-21T12:53:36.468Z,6.13
2023-03-21T12:54:41.930Z,5.93
2023-03-21T12:55:45.984Z,4.93
2023-03-21T12:56:57.520Z,5.13
2023-03-21T12:58:18.443Z,4.75
2023-03-21T12:59:26.701Z,4.45
2023-03-21T13:00:56.466Z,4.85
2023-03-21T13:02:06.033Z,4.50
2023-03-21T13:03:13.501Z,4.03
2023-03-21T13:04:42.492Z,4.50
2023-03-21T13:06:07.424Z,4.47
2023-03-21T13:07:15.071Z,4.93
2023-03-21T13:08:29.016Z,5.38
2023-03-21T13:09:38.348Z,6.07
2023-03-21T13:10:44.594Z,4.82
2023-03-21T13:11:48.557Z,4.95
2023-03-21T13:12:56.675Z,5.82
2023-03-21T13:14:20.855Z,4.90
2023-03-21T13:15:29.164Z,4.85
2023-03-21T13:16:48.001Z,4.45
2023-03-21T13:19:11.652Z,4.80
2023-03-21T13:20:25.784Z,4.05
2023-03-21T13:21:52.446Z,5.22
2023-03-21T13:22:54.334Z,4.35
2023-03-21T13:24:00.466Z,4.72
2023-03-21T13:25:25.724Z,4.82
2023-03-21T13:26:41.272Z,5.18
2023-03-21T13:27:47.288Z,5.72
2023-03-21T13:28:49.270Z,5.35
2023-03-21T13:30:01.081Z,5.68
2023-03-21T13:31:18.998Z,5.35
2023-03-21T13:32:31.519Z,4.70
2023-03-21T13:33:34.726Z,5.00
2023-03-21T13:34:38.922Z,5.53
2023-03-21T13:35:43.717Z,5.25
2023-03-21T13:36:48.379Z,5.25
2023-03-21T13:37:56.654Z,4.80
2023-03-21T13:39:05.636Z,4.90
2023-03-21T13:40:24.748Z,4.68
2023-03-21T13:41:32.355Z,4.57
2023-03-21T13:42:34.597Z,4.88
2023-03-21T13:44:06.755Z,6.35
2023-03-21T13:45:11.637Z,5.10
2023-03-21T13:46:15.464Z,5.65
2023-03-21T13:47:39.920Z,5.75
2023-03-21T13:48:58.917Z,5.35
2023-03-21T13:50:20.353Z,5.50
2023-03-21T13:51:43.257Z,5.05
2023-03-21T13:53:18.659Z,5.32
2023-03-21T13:54:29.770Z,4.78
2023-03-21T13:55:41.659Z,4.70
2023-03-21T13:56:52.589Z,5.22
2023-03-21T13:57:54.548Z,4.85
2023-03-21T13:59:04.141Z,4.60
2023-03-21T14:00:19.055Z,4.80
2023-03-21T14:01:54.754Z,5.10
2023-03-21T14:03:05.719Z,4.18
2023-03-21T14:04:17.682Z,4.55
2023-03-21T14:05:22.404Z,4.53
2023-03-21T14:06:30.644Z,4.40
2023-03-21T14:07:45.042Z,4.45
2023-03-21T14:08:49.133Z,5.28
2023-03-21T14:09:54.306Z,5.15
2023-03-21T14:10:59.782Z,5.80
2023-03-21T14:12:07.528Z,4.90
2023-03-21T14:13:16.992Z,6.50
2023-03-21T14:14:21.961Z,6.30
2023-03-21T14:15:40.953Z,5.50
2023-03-21T14:17:14.603Z,5.80
2023-03-21T14:18:35.031Z,5.10
2023-03-21T14:20:20.590Z,5.20
2023-03-21T14:22:24.101Z,4.93
2023-03-21T14:23:49.889Z,5.47
2023-03-21T14:25:16.065Z,5.20
2023-03-21T14:26:42.246Z,5.82
2023-03-21T14:35:14.289Z,5.88
2023-03-21T14:36:58.312Z,5.88
2023-03-21T14:40:36.731Z,6.00
2023-03-21T14:42:37.969Z,6.78
2023-03-21T14:47:38.891Z,6.20
2023-03-21T14:49:21.593Z,5.75
2023-03-21T14:50:51.868Z,5.82
2023-03-21T14:52:43.961Z,5.50
2023-03-21T14:55:17.193Z,5.75
2023-03-21T15:04:10.621Z,6.20
2023-03-21T15:28:54.169Z,6.55
2023-03-21T15:30:30.239Z,6.30
2023-03-21T15:31:41.465Z,6.45
2023-03-21T15:33:13.456Z,6.40
2023-03-21T15:59:52.134Z,6.78
2023-03-21T16:19:04.802Z,7.30
2023-03-21T16:28:35.073Z,7.70
2023-03-21T16:57:57.455Z,7.72
2023-03-21T18:01:18.372Z,9.98
